Beit Lahm, Israel
Current Conditions -  °F | °C
As of 8:50 PM on Sunday 21 Dec 2014 (Local Time) from LLBG Reporting Station
Clear Clear  
Wind Chill: 57°   Ceiling: Unl
Heat Index: 57°   Visibility: 6mi
Dew Point: 52°   Wind: 5mph
Humidity: 82%   Direction: 110°ESE
Pressure: 30.15"   Gusts: NA
Location:  31.72°N, 35.2°E
Report Text: LLBG 211750Z 11004KT CAVOK 14/11 Q1021 NOSIG RMK FEW090
Loading
Personal Weather Stations






























Interactive Weather Map New forecast layout! Learn more

10-Day Weather Forecast

Advertisements
Track Severe Weather on mobile